Shelby, NC

11:31 PM EDT on August 29, 2014 (GMT -0400)
Shelby Municipal | Change Station
CLOSE
Current Station
Airport
Location: Shelby,
Elevation: 846 ft
Nearby Weather Stations

Elev 846 ft 35.26 °N, 81.60 °W | Updated 16 minutes ago

Clear
Clear
74 °F
Feels Like 74 °F
N
5
Wind Variable Wind from NE

Today
High -- | Low -- °F
--% Chance of Precip.
Yesterday
High -- | Low -- °F
Precip. -- in
6:56 AM 7:57 PM
Waxing Crescent, 18% visible
Pressure 30.16 in
Visibility 10.0 miles
Clouds Clear
Dew Point 70 °F
Humidity 88%
Rainfall 0.00 in
Snow Depth Not available.
UV 0 out of 12
Pollen 9.00 out of 12
Ozone Good
PM2.5 Moderate
Flu Activity Not available.
METAR KEHO 300315Z AUTO 05004KT 10SM CLR 23/21 A3016 RMK AO2 T02330212

More Conditions Fewer Conditions

Pressure 30.16 in
Visibility 10.0 miles
Clouds Clear
Dew Point 70 °F
Humidity 88%
Rainfall 0.00 in
Snow Depth Not available.
UV 0 out of 12
Pollen 9.00 out of 12
Ozone Good
PM2.5 Moderate
Flu Activity Not available.
METAR KEHO 300315Z AUTO 05004KT 10SM CLR 23/21 A3016 RMK AO2 T02330212

More Conditions Fewer Conditions

10-Day Weather Forecast

Almanac

Astronomy

Aug. 29, 2014 Rise Set
Actual Time 6:56 AM EDT 7:57 PM EDT
Civil Twilight 6:30 AM EDT 8:23 PM EDT
Nautical Twilight 5:59 AM EDT 8:54 PM EDT
Astronomical Twilight 5:27 AM EDT 9:26 PM EDT
Moon 10:34 AM EDT (8/29) 10:04 PM EDT (8/29)
Length of Visible Light 13h 53m
Length of Day
13h 00m
Tomorrow will be 2m 6s shorter.
Waxing Crescent, 18% of the Moon is Illuminated
Today
Waxing Crescent
Sep 2
First Quarter
Sep 8
Full
Sep 15
Last Quarter
Sep 24
New

Today's Extremes

State Highs State Lows

Community

WunderPhotos

Upload Photos

1,748,432 photos uploaded!

Nearby

Air Quality

  Air Quality AQ Index Pollutant
Yesterday Moderate
OZONE
Yesterday Moderate
PM2.5
Current Moderate
PM2.5
Current Good
OZONE
Friday Moderate
OZONE
Friday Moderate
PM2.5
Saturday Moderate
OZONE
Saturday Moderate
PM2.5
Sunday Good
OZONE
Sunday Good
PM2.5
Monday Good
OZONE
Monday Good
PM2.5

Snow Depth

Station Depth Elevation
No new snow has been reported.

Earthquake Activity

City Distance Mag. Time & Date
No recent earthquake activity has been reported nearby.
Minimum magnitude displayed is 2.5.

Coastal Water Temperatures

Place Temperature
No Stations Reporting

Nearby Weather Stations